Time;durP1;ratioP1;P1;durP2;ratioP2;P2;SDS_P1;SDS_P2;PMS_P1;PMS_P2;Temp;Humidity;BMP_temperature;BMP_pressure;BME280_temperature;BME280_humidity;BME280_pressure;Samples;Min_cycle;Max_cycle;Signal;HPM_P1;HPM_P2
2022/06/22 00:01:21;;;;;;;3.42;1.50;;;;;;;;;;1753402;80;21124;-81
2022/06/22 00:03:48;;;;;;;2.08;1.40;;;;;;;;;;1739182;80;21032;-81
2022/06/22 00:06:16;;;;;;;2.05;1.60;;;;;;;;;;1744869;80;21115;-81
2022/06/22 00:08:46;;;;;;;3.35;1.50;;;;;;;;;;1751043;81;21036;-81
2022/06/22 00:11:15;;;;;;;2.42;1.57;;;;;;;;;;1759494;81;21024;-80
2022/06/22 00:13:45;;;;;;;1.47;1.25;;;;;;;;;;1770774;80;21035;-81
2022/06/22 00:16:17;;;;;;;2.75;1.60;;;;;;;;;;1745192;81;21030;-81
2022/06/22 00:18:45;;;;;;;5.95;1.42;;;;;;;;;;1737507;82;21045;-80
2022/06/22 00:21:26;;;;;;;2.62;1.40;;;;;;;;;;1736760;82;21033;-80
2022/06/22 00:23:55;;;;;;;1.55;1.45;;;;;;;;;;1729366;81;21037;-80
2022/06/22 00:26:25;;;;;;;1.62;1.50;;;;;;;;;;1739551;82;21541;-80
2022/06/22 00:29:05;;;;;;;1.37;1.27;;;;;;;;;;1732975;82;21016;-81
2022/06/22 00:31:39;;;;;;;1.30;1.20;;;;;;;;;;1734676;82;21065;-81
2022/06/22 00:34:10;;;;;;;2.33;1.52;;;;;;;;;;1734951;82;21034;-80
2022/06/22 00:36:38;;;;;;;2.35;1.30;;;;;;;;;;1737824;81;21539;-81
2022/06/22 00:39:09;;;;;;;1.25;1.22;;;;;;;;;;1730140;82;21037;-81
2022/06/22 00:41:35;;;;;;;3.65;1.47;;;;;;;;;;1734600;82;21089;-81
2022/06/22 00:44:03;;;;;;;1.45;1.35;;;;;;;;;;1733501;82;21060;-80
2022/06/22 00:46:29;;;;;;;1.40;1.30;;;;;;;;;;1729826;82;21037;-80
2022/06/22 00:48:55;;;;;;;1.37;1.25;;;;;;;;;;1731256;81;21036;-81
2022/06/22 00:51:23;;;;;;;1.57;1.40;;;;;;;;;;1736187;82;21037;-81
2022/06/22 00:53:51;;;;;;;1.50;1.30;;;;;;;;;;1737959;82;21061;-81
2022/06/22 00:56:22;;;;;;;2.47;1.40;;;;;;;;;;1733341;82;22153;-81
2022/06/22 00:58:50;;;;;;;1.75;1.60;;;;;;;;;;1734175;82;21092;-80
2022/06/22 01:04:14;;;;;;;1.50;1.22;;;;;;;;;;1733972;79;21099;-85
2022/06/22 01:06:48;;;;;;;1.37;1.25;;;;;;;;;;1728761;83;21088;-85
2022/06/22 01:09:25;;;;;;;1.27;1.17;;;;;;;;;;1729352;83;21040;-85
2022/06/22 01:14:40;;;;;;;1.55;1.32;;;;;;;;;;1730120;81;21063;-85
2022/06/22 01:17:06;;;;;;;1.72;1.30;;;;;;;;;;1693307;84;21120;-84
2022/06/22 01:19:53;;;;;;;1.32;1.20;;;;;;;;;;1661107;86;21097;-85
2022/06/22 01:22:33;;;;;;;1.72;1.40;;;;;;;;;;1680716;85;21037;-84
2022/06/22 01:25:16;;;;;;;1.30;1.20;;;;;;;;;;1624937;84;21065;-86
2022/06/22 01:27:42;;;;;;;1.90;1.37;;;;;;;;;;1676541;85;21108;-85
2022/06/22 01:30:21;;;;;;;1.00;1.00;;;;;;;;;;1680565;85;22149;-85
2022/06/22 01:32:48;;;;;;;1.35;1.25;;;;;;;;;;1680416;85;21678;-86
2022/06/22 01:35:19;;;;;;;1.30;1.20;;;;;;;;;;1679189;84;21073;-87
2022/06/22 01:37:45;;;;;;;1.40;1.30;;;;;;;;;;1679239;85;21018;-86
2022/06/22 01:40:13;;;;;;;1.50;1.40;;;;;;;;;;1679268;85;21033;-88
2022/06/22 01:42:57;;;;;;;1.30;1.20;;;;;;;;;;1680223;85;21020;-88
2022/06/22 01:45:25;;;;;;;1.15;1.05;;;;;;;;;;1680861;84;21123;-88
2022/06/22 01:48:01;;;;;;;2.25;1.42;;;;;;;;;;1680336;85;21081;-89
2022/06/22 01:50:35;;;;;;;1.30;1.20;;;;;;;;;;1679283;85;21113;-88
2022/06/22 01:53:24;;;;;;;1.40;1.30;;;;;;;;;;1679703;85;21069;-88
2022/06/22 01:55:53;;;;;;;1.40;1.30;;;;;;;;;;1598411;89;21050;-88
2022/06/22 01:58:21;;;;;;;2.15;1.20;;;;;;;;;;1639852;87;21059;-88
2022/06/22 02:00:52;;;;;;;2.62;1.50;;;;;;;;;;1651619;85;21054;-88
2022/06/22 02:03:34;;;;;;;2.80;2.15;;;;;;;;;;1701191;83;21094;-88
2022/06/22 02:06:01;;;;;;;;;;;;;;;;;;1725128;82;21052;-88
2022/06/22 02:08:36;;;;;;;1.20;1.10;;;;;;;;;;1724246;82;20420;-89
2022/06/22 02:11:04;;;;;;;2.25;1.20;;;;;;;;;;1722829;83;21039;-89
2022/06/22 02:13:41;;;;;;;1.35;1.25;;;;;;;;;;1721993;83;21068;-88
2022/06/22 02:16:14;;;;;;;1.17;1.05;;;;;;;;;;1722912;82;21053;-87
2022/06/22 02:18:43;;;;;;;1.27;1.17;;;;;;;;;;1722256;83;21045;-86
2022/06/22 02:21:11;;;;;;;1.40;1.30;;;;;;;;;;1723266;83;21045;-86
2022/06/22 02:23:36;;;;;;;1.22;1.17;;;;;;;;;;1722761;83;21091;-85
2022/06/22 02:26:07;;;;;;;1.30;1.30;;;;;;;;;;1692657;83;21045;-85
2022/06/22 02:28:34;;;;;;;1.10;1.10;;;;;;;;;;1708122;83;21049;-85
2022/06/22 02:31:00;;;;;;;1.50;1.10;;;;;;;;;;1716547;83;21029;-86
2022/06/22 02:33:26;;;;;;;1.37;1.27;;;;;;;;;;1722974;83;21072;-87
2022/06/22 02:35:52;;;;;;;1.30;1.20;;;;;;;;;;1723237;83;21025;-88
2022/06/22 02:38:18;;;;;;;1.35;1.20;;;;;;;;;;1723607;83;21056;-86
2022/06/22 02:46:15;;;;;;;1.95;1.40;;;;;;;;;;1691869;83;20989;-88
2022/06/22 02:48:42;;;;;;;1.17;1.15;;;;;;;;;;1706304;84;21018;-88
2022/06/22 02:51:09;;;;;;;1.45;1.30;;;;;;;;;;1706440;83;21044;-85
2022/06/22 02:53:37;;;;;;;1.57;1.35;;;;;;;;;;1687386;84;21073;-85
2022/06/22 02:56:04;;;;;;;1.62;1.35;;;;;;;;;;1723827;82;21039;-85
2022/06/22 02:58:34;;;;;;;1.60;1.27;;;;;;;;;;1703656;83;21303;-86
2022/06/22 03:01:01;;;;;;;1.22;1.15;;;;;;;;;;1691249;85;21318;-86
2022/06/22 03:03:27;;;;;;;1.30;1.15;;;;;;;;;;1685237;83;21092;-86
2022/06/22 03:05:54;;;;;;;1.10;1.10;;;;;;;;;;1705479;84;21103;-85
2022/06/22 03:08:21;;;;;;;1.45;1.35;;;;;;;;;;1706587;83;21073;-85
2022/06/22 03:10:51;;;;;;;1.72;1.50;;;;;;;;;;1693070;85;21016;-86
2022/06/22 03:13:34;;;;;;;1.37;1.27;;;;;;;;;;1691796;85;21044;-86
2022/06/22 03:16:00;;;;;;;2.30;1.20;;;;;;;;;;1692176;84;21067;-86
2022/06/22 03:18:27;;;;;;;1.20;1.10;;;;;;;;;;1706406;84;21532;-87
2022/06/22 03:20:54;;;;;;;1.50;1.35;;;;;;;;;;1689205;83;21013;-86
2022/06/22 03:23:38;;;;;;;1.50;1.20;;;;;;;;;;1709065;84;22084;-86
2022/06/22 03:26:06;;;;;;;1.45;1.35;;;;;;;;;;1709075;84;21510;-89
2022/06/22 03:28:33;;;;;;;1.52;1.42;;;;;;;;;;1709280;84;20988;-88
2022/06/22 03:31:00;;;;;;;1.62;1.52;;;;;;;;;;1686647;84;20984;-90
2022/06/22 03:33:28;;;;;;;3.42;1.57;;;;;;;;;;1694195;83;21099;-87
2022/06/22 03:35:56;;;;;;;1.47;1.37;;;;;;;;;;1716433;82;21076;-87
2022/06/22 03:38:29;;;;;;;2.70;1.50;;;;;;;;;;1689607;85;21518;-87
2022/06/22 03:40:57;;;;;;;1.52;1.37;;;;;;;;;;1691818;84;21026;-86
2022/06/22 03:43:25;;;;;;;1.95;1.40;;;;;;;;;;1705891;84;21009;-87
2022/06/22 03:45:53;;;;;;;1.40;1.30;;;;;;;;;;1714225;82;21324;-87
2022/06/22 03:48:21;;;;;;;1.57;1.40;;;;;;;;;;1723355;83;21037;-86
2022/06/22 03:50:52;;;;;;;2.55;1.40;;;;;;;;;;1696949;84;21072;-87
2022/06/22 03:53:26;;;;;;;4.47;3.12;;;;;;;;;;1719400;83;21001;-87
2022/06/22 03:55:53;;;;;;;3.83;1.50;;;;;;;;;;1708582;82;21753;-90
2022/06/22 03:58:20;;;;;;;1.60;1.50;;;;;;;;;;1691237;83;20965;-87
2022/06/22 04:00:46;;;;;;;2.08;1.60;;;;;;;;;;1690004;84;21004;-86
2022/06/22 04:03:13;;;;;;;2.20;1.72;;;;;;;;;;1690246;83;21068;-87
2022/06/22 04:05:41;;;;;;;2.08;1.52;;;;;;;;;;1700476;82;20989;-87
2022/06/22 04:08:20;;;;;;;2.85;1.50;;;;;;;;;;1722288;83;21085;-86
2022/06/22 04:10:51;;;;;;;1.92;1.50;;;;;;;;;;1719000;83;21098;-86
2022/06/22 04:13:19;;;;;;;1.67;1.52;;;;;;;;;;1723094;83;21089;-85
2022/06/22 04:15:49;;;;;;;1.77;1.32;;;;;;;;;;1722558;82;21049;-86
2022/06/22 04:18:17;;;;;;;1.72;1.37;;;;;;;;;;1722933;83;20977;-88
2022/06/22 04:20:51;;;;;;;2.92;1.50;;;;;;;;;;1722887;83;21033;-87
2022/06/22 04:23:19;;;;;;;2.25;1.70;;;;;;;;;;1721706;83;21091;-87
2022/06/22 04:25:45;;;;;;;2.08;1.47;;;;;;;;;;1722592;82;21086;-87
2022/06/22 04:28:11;;;;;;;3.40;1.50;;;;;;;;;;1723386;82;20958;-88
2022/06/22 04:30:47;;;;;;;2.37;1.80;;;;;;;;;;1724399;83;21504;-85
2022/06/22 04:33:15;;;;;;;5.72;1.70;;;;;;;;;;1707631;83;20970;-86
2022/06/22 04:35:42;;;;;;;2.00;1.62;;;;;;;;;;1713805;82;21559;-85
2022/06/22 04:38:11;;;;;;;1.77;1.60;;;;;;;;;;1704686;83;20996;-87
2022/06/22 04:40:51;;;;;;;1.55;1.45;;;;;;;;;;1719837;83;21188;-88
2022/06/22 04:43:17;;;;;;;2.15;1.60;;;;;;;;;;1695389;83;21040;-83
2022/06/22 04:45:43;;;;;;;3.05;1.67;;;;;;;;;;1711184;82;21017;-82
2022/06/22 04:48:11;;;;;;;1.92;1.60;;;;;;;;;;1720495;83;21036;-87
2022/06/22 04:50:37;;;;;;;1.42;1.32;;;;;;;;;;1722705;83;21033;-86
2022/06/22 04:53:03;;;;;;;1.52;1.42;;;;;;;;;;1722866;83;21483;-88
2022/06/22 04:55:29;;;;;;;1.60;1.50;;;;;;;;;;1722563;82;21041;-84
2022/06/22 04:57:57;;;;;;;2.08;1.57;;;;;;;;;;1721937;83;21029;-85
2022/06/22 05:00:25;;;;;;;1.50;1.40;;;;;;;;;;1720261;83;20993;-84
2022/06/22 05:02:56;;;;;;;2.08;1.52;;;;;;;;;;1694877;83;20979;-84
2022/06/22 05:05:23;;;;;;;1.52;1.42;;;;;;;;;;1693291;83;21615;-87
2022/06/22 05:07:57;;;;;;;2.00;1.52;;;;;;;;;;1715998;84;21057;-85
2022/06/22 05:10:28;;;;;;;1.60;1.50;;;;;;;;;;1715947;84;21100;-86
2022/06/22 05:12:55;;;;;;;1.98;1.62;;;;;;;;;;1744860;81;21599;-82
2022/06/22 05:15:35;;;;;;;2.05;1.70;;;;;;;;;;1731058;81;21073;-83
2022/06/22 05:18:01;;;;;;;1.85;1.60;;;;;;;;;;1735030;81;21017;-83
2022/06/22 05:20:29;;;;;;;1.52;1.42;;;;;;;;;;1734264;82;21037;-82
2022/06/22 05:22:57;;;;;;;3.12;1.60;;;;;;;;;;1726593;82;21009;-83
2022/06/22 05:25:23;;;;;;;1.75;1.65;;;;;;;;;;1719428;81;21038;-86
2022/06/22 05:27:51;;;;;;;1.57;1.45;;;;;;;;;;1744482;82;20974;-84
2022/06/22 05:30:18;;;;;;;1.98;1.55;;;;;;;;;;1742278;82;20999;-86
2022/06/22 05:32:46;;;;;;;2.10;1.70;;;;;;;;;;1726991;81;21134;-86
2022/06/22 05:35:13;;;;;;;2.25;1.60;;;;;;;;;;1746281;81;22113;-84
2022/06/22 05:37:40;;;;;;;1.95;1.60;;;;;;;;;;1741531;82;21141;-84
2022/06/22 05:40:08;;;;;;;2.17;1.60;;;;;;;;;;1741688;80;21096;-82
2022/06/22 05:42:34;;;;;;;1.42;1.32;;;;;;;;;;1748656;80;21077;-85
2022/06/22 05:45:01;;;;;;;2.80;1.70;;;;;;;;;;1744055;81;21104;-84
2022/06/22 05:47:29;;;;;;;2.20;1.70;;;;;;;;;;1744318;82;21037;-84
2022/06/22 05:49:57;;;;;;;1.87;1.70;;;;;;;;;;1725116;82;20966;-86
2022/06/22 05:52:25;;;;;;;1.55;1.40;;;;;;;;;;1728884;82;21514;-84
2022/06/22 05:54:53;;;;;;;2.30;1.60;;;;;;;;;;1722388;82;21029;-81
2022/06/22 05:57:24;;;;;;;2.17;1.65;;;;;;;;;;1732202;81;21025;-86
2022/06/22 05:59:51;;;;;;;2.62;1.72;;;;;;;;;;1740504;81;21392;-80
2022/06/22 06:02:36;;;;;;;1.85;1.72;;;;;;;;;;1740876;81;21002;-80
2022/06/22 06:05:05;;;;;;;1.98;1.52;;;;;;;;;;1737688;81;21099;-80
2022/06/22 06:07:33;;;;;;;1.50;1.40;;;;;;;;;;1751971;82;21584;-80
2022/06/22 06:10:00;;;;;;;2.42;1.70;;;;;;;;;;1735835;81;21121;-83
2022/06/22 06:12:28;;;;;;;4.97;1.80;;;;;;;;;;1718156;83;21603;-82
2022/06/22 06:14:54;;;;;;;1.82;1.62;;;;;;;;;;1672173;84;21068;-85
2022/06/22 06:17:27;;;;;;;3.17;1.70;;;;;;;;;;1697940;83;21040;-81
2022/06/22 06:19:53;;;;;;;2.17;1.60;;;;;;;;;;1691776;84;21037;-81
2022/06/22 06:22:22;;;;;;;3.70;1.95;;;;;;;;;;1692630;84;21508;-80
2022/06/22 06:27:34;;;;;;;3.33;1.80;;;;;;;;;;1704135;83;21007;-81
2022/06/22 06:30:02;;;;;;;2.35;1.72;;;;;;;;;;1690402;83;21504;-82
2022/06/22 06:32:36;;;;;;;2.40;1.70;;;;;;;;;;1708242;83;21598;-82
2022/06/22 06:35:07;;;;;;;3.22;1.60;;;;;;;;;;1682417;85;21095;-81
2022/06/22 06:37:41;;;;;;;2.95;1.80;;;;;;;;;;1687330;83;21087;-82
2022/06/22 06:40:11;;;;;;;1.50;1.40;;;;;;;;;;1696177;83;20996;-79
2022/06/22 06:42:46;;;;;;;3.47;1.80;;;;;;;;;;1691142;83;21024;-82
2022/06/22 06:45:14;;;;;;;2.20;1.90;;;;;;;;;;1676673;83;21093;-82
2022/06/22 06:47:40;;;;;;;3.25;1.90;;;;;;;;;;1718048;82;21541;-80
2022/06/22 06:50:07;;;;;;;3.70;1.80;;;;;;;;;;1707517;83;21066;-82
2022/06/22 06:52:41;;;;;;;2.15;1.70;;;;;;;;;;1702895;83;21191;-76
2022/06/22 06:55:12;;;;;;;2.65;1.82;;;;;;;;;;1691302;83;21096;-82
2022/06/22 06:57:38;;;;;;;2.65;1.85;;;;;;;;;;1697908;83;21008;-80
2022/06/22 07:00:05;;;;;;;2.67;1.75;;;;;;;;;;1702648;83;22109;-85
2022/06/22 07:02:34;;;;;;;3.22;2.50;;;;;;;;;;1707460;83;21146;-89
2022/06/22 07:05:00;;;;;;;2.25;2.00;;;;;;;;;;1700618;83;21052;-89
2022/06/22 07:07:32;;;;;;;2.72;1.90;;;;;;;;;;1661942;85;21037;-83
2022/06/22 07:09:58;;;;;;;2.22;1.80;;;;;;;;;;1743949;81;21056;-88
2022/06/22 07:12:33;;;;;;;2.42;1.60;;;;;;;;;;1739162;82;21057;-86
2022/06/22 07:15:00;;;;;;;2.35;1.72;;;;;;;;;;1743167;81;21030;-85
2022/06/22 07:17:27;;;;;;;2.05;1.75;;;;;;;;;;1743918;81;20990;-82
2022/06/22 07:20:01;;;;;;;2.40;1.72;;;;;;;;;;1743930;81;21060;-84
2022/06/22 07:22:30;;;;;;;1.87;1.67;;;;;;;;;;1709029;81;21047;-88
2022/06/22 07:25:15;;;;;;;2.15;1.67;;;;;;;;;;1741756;81;21032;-82
2022/06/22 07:27:49;;;;;;;1.85;1.75;;;;;;;;;;1745441;81;21029;-80
2022/06/22 07:30:26;;;;;;;1.75;1.65;;;;;;;;;;1743922;81;21064;-86
2022/06/22 07:32:54;;;;;;;3.20;1.77;;;;;;;;;;1727444;81;21069;-83
2022/06/22 07:35:35;;;;;;;1.77;1.60;;;;;;;;;;1734244;81;21096;-88
2022/06/22 07:38:12;;;;;;;2.37;1.85;;;;;;;;;;1738585;80;21081;-79
2022/06/22 07:40:39;;;;;;;1.60;1.50;;;;;;;;;;1728319;81;22051;-79
2022/06/22 07:43:05;;;;;;;3.42;1.92;;;;;;;;;;1750138;80;20953;-80
2022/06/22 07:45:32;;;;;;;1.57;1.40;;;;;;;;;;1742873;80;21013;-80
2022/06/22 07:48:01;;;;;;;2.08;1.87;;;;;;;;;;1733882;81;21004;-84
2022/06/22 07:50:32;;;;;;;2.30;1.70;;;;;;;;;;1680538;84;21027;-86
2022/06/22 07:53:06;;;;;;;2.25;1.70;;;;;;;;;;1687050;84;20990;-75
2022/06/22 07:55:34;;;;;;;2.67;1.80;;;;;;;;;;1679080;84;21033;-76
2022/06/22 07:58:16;;;;;;;3.02;1.70;;;;;;;;;;1747187;81;21490;-77
2022/06/22 08:00:43;;;;;;;3.00;1.90;;;;;;;;;;1743775;81;21088;-73
2022/06/22 08:03:18;;;;;;;3.50;1.70;;;;;;;;;;1743696;80;21065;-75
2022/06/22 08:05:44;;;;;;;1.70;1.60;;;;;;;;;;1747674;81;21066;-75
2022/06/22 08:08:18;;;;;;;1.87;1.60;;;;;;;;;;1742030;81;21028;-74
2022/06/22 08:10:46;;;;;;;3.35;1.80;;;;;;;;;;1737394;80;22038;-74
2022/06/22 08:13:16;;;;;;;69.40;45.98;;;;;;;;;;1740317;80;21001;-71
2022/06/22 08:15:47;;;;;;;34.45;23.85;;;;;;;;;;1738248;80;21544;-74
2022/06/22 08:18:14;;;;;;;6.08;4.65;;;;;;;;;;1742288;81;21432;-80
2022/06/22 08:20:41;;;;;;;3.72;2.58;;;;;;;;;;1740176;80;20939;-80
2022/06/22 08:23:10;;;;;;;3.75;2.30;;;;;;;;;;1752264;80;20997;-80
2022/06/22 08:25:38;;;;;;;4.08;2.17;;;;;;;;;;1760800;80;21564;-79
2022/06/22 08:28:06;;;;;;;2.10;1.65;;;;;;;;;;1744137;81;21032;-78
2022/06/22 08:30:33;;;;;;;1.77;1.60;;;;;;;;;;1727695;81;21509;-78
2022/06/22 08:33:06;;;;;;;2.15;1.80;;;;;;;;;;1729964;81;21065;-71
2022/06/22 08:35:39;;;;;;;2.20;2.00;;;;;;;;;;1733886;81;21023;-71
2022/06/22 08:38:07;;;;;;;2.77;1.87;;;;;;;;;;1745212;81;20989;-71
2022/06/22 08:40:38;;;;;;;3.25;2.00;;;;;;;;;;1740747;81;21049;-76
2022/06/22 08:43:19;;;;;;;2.62;1.92;;;;;;;;;;1748195;81;21076;-77
2022/06/22 08:46:03;;;;;;;4.40;1.95;;;;;;;;;;1728535;82;21029;-77
2022/06/22 08:48:38;;;;;;;2.20;1.90;;;;;;;;;;1743762;80;21048;-77
2022/06/22 08:51:15;;;;;;;2.08;1.77;;;;;;;;;;1724688;81;21598;-77
2022/06/22 08:53:59;;;;;;;6.62;2.98;;;;;;;;;;1740521;81;21005;-75
2022/06/22 08:56:27;;;;;;;2.45;1.92;;;;;;;;;;1732502;81;21117;-75
2022/06/22 08:59:12;;;;;;;2.95;1.80;;;;;;;;;;1730620;80;21042;-75
2022/06/22 09:01:40;;;;;;;13.60;10.85;;;;;;;;;;1749144;80;21353;-74
2022/06/22 09:04:24;;;;;;;18.98;10.15;;;;;;;;;;1744247;80;21025;-74
2022/06/22 09:07:08;;;;;;;4.78;3.10;;;;;;;;;;1731430;81;21458;-82
2022/06/22 09:09:40;;;;;;;2.25;1.50;;;;;;;;;;1749072;82;21025;-85
2022/06/22 09:12:18;;;;;;;2.15;1.67;;;;;;;;;;1725909;82;21046;-82
2022/06/22 09:15:01;;;;;;;3.45;1.90;;;;;;;;;;1717334;82;21100;-82
2022/06/22 09:17:47;;;;;;;4.35;2.00;;;;;;;;;;1675996;84;21556;-84
2022/06/22 09:20:15;;;;;;;3.12;1.80;;;;;;;;;;1654260;87;21028;-87
2022/06/22 09:22:47;;;;;;;3.62;1.82;;;;;;;;;;1661776;84;21307;-87
2022/06/22 09:25:27;;;;;;;2.62;1.70;;;;;;;;;;1731593;82;21048;-86
2022/06/22 09:28:01;;;;;;;2.55;1.90;;;;;;;;;;1749342;82;21053;-88
2022/06/22 09:30:29;;;;;;;2.35;1.80;;;;;;;;;;1720978;82;21462;-79
2022/06/22 09:33:03;;;;;;;2.65;2.22;;;;;;;;;;1710725;82;21093;-80
2022/06/22 09:35:34;;;;;;;3.12;2.22;;;;;;;;;;1716646;82;21006;-79
2022/06/22 09:38:19;;;;;;;2.95;1.90;;;;;;;;;;1713417;82;21102;-80
2022/06/22 09:40:53;;;;;;;3.52;1.92;;;;;;;;;;1729911;83;21021;-80
2022/06/22 09:43:20;;;;;;;2.37;1.80;;;;;;;;;;1733156;82;21033;-88
2022/06/22 09:45:57;;;;;;;2.25;1.80;;;;;;;;;;1717944;82;21068;-79
2022/06/22 09:48:42;;;;;;;1.92;1.70;;;;;;;;;;1715599;84;21599;-87
2022/06/22 09:51:22;;;;;;;2.17;1.60;;;;;;;;;;1720578;82;20994;-78
2022/06/22 09:53:52;;;;;;;1.70;1.60;;;;;;;;;;1730606;82;21038;-78
2022/06/22 09:56:33;;;;;;;2.12;1.70;;;;;;;;;;1720215;82;21017;-83
2022/06/22 09:59:10;;;;;;;3.17;1.70;;;;;;;;;;1710417;84;21025;-84
2022/06/22 10:01:39;;;;;;;1.98;1.70;;;;;;;;;;1714191;83;21099;-74
2022/06/22 10:04:07;;;;;;;2.47;1.50;;;;;;;;;;1721104;82;21015;-76
2022/06/22 10:06:37;;;;;;;1.90;1.72;;;;;;;;;;1729430;81;21551;-78
2022/06/22 10:09:05;;;;;;;2.70;1.70;;;;;;;;;;1759056;81;21528;-78
2022/06/22 10:11:44;;;;;;;1.45;1.35;;;;;;;;;;1759224;81;21068;-76
2022/06/22 10:14:15;;;;;;;1.80;1.70;;;;;;;;;;1743889;80;21060;-77
2022/06/22 10:16:55;;;;;;;1.65;1.40;;;;;;;;;;1769157;80;21052;-78
2022/06/22 10:19:41;;;;;;;2.92;2.00;;;;;;;;;;1754154;81;21040;-78
2022/06/22 10:22:10;;;;;;;2.02;1.70;;;;;;;;;;1758773;80;21071;-78
2022/06/22 10:24:38;;;;;;;2.27;1.87;;;;;;;;;;1756254;80;21544;-78
2022/06/22 10:27:08;;;;;;;2.40;1.80;;;;;;;;;;1754236;80;21580;-78
2022/06/22 10:29:42;;;;;;;3.00;1.82;;;;;;;;;;1757021;80;21029;-77
2022/06/22 10:32:13;;;;;;;2.02;1.45;;;;;;;;;;1757938;80;21016;-78
2022/06/22 10:34:41;;;;;;;2.60;1.70;;;;;;;;;;1721096;82;21091;-77
2022/06/22 10:37:08;;;;;;;1.98;1.62;;;;;;;;;;1692347;83;21053;-78
2022/06/22 10:39:36;;;;;;;2.90;1.70;;;;;;;;;;1695150;84;21034;-78
2022/06/22 10:45:10;;;;;;;3.52;1.75;;;;;;;;;;1693374;84;20976;-79
2022/06/22 10:47:44;;;;;;;10.58;7.03;;;;;;;;;;1692828;83;21049;-73
2022/06/22 10:50:15;;;;;;;20.72;14.68;;;;;;;;;;1695893;82;21053;-73
2022/06/22 10:53:00;;;;;;;14.45;9.70;;;;;;;;;;1676331;83;21033;-89
2022/06/22 10:55:27;;;;;;;5.62;3.80;;;;;;;;;;1690445;83;21021;-82
2022/06/22 10:57:58;;;;;;;6.33;4.50;;;;;;;;;;1705350;83;21497;-84
2022/06/22 11:00:29;;;;;;;3.75;2.40;;;;;;;;;;1678210;83;21030;-79
2022/06/22 11:03:02;;;;;;;3.67;2.35;;;;;;;;;;1664361;85;21085;-80
2022/06/22 11:05:48;;;;;;;3.62;2.35;;;;;;;;;;1712677;82;21631;-83
2022/06/22 11:08:33;;;;;;;3.02;2.00;;;;;;;;;;1721143;83;21112;-80
2022/06/22 11:11:08;;;;;;;2.50;2.00;;;;;;;;;;1718390;82;21587;-83
2022/06/22 11:13:42;;;;;;;3.00;2.20;;;;;;;;;;1716570;82;21090;-84
2022/06/22 11:16:10;;;;;;;2.77;2.20;;;;;;;;;;1730324;82;21054;-83
2022/06/22 11:18:44;;;;;;;2.35;1.82;;;;;;;;;;1683138;85;21122;-84
2022/06/22 11:21:19;;;;;;;3.70;1.90;;;;;;;;;;1694277;83;21017;-86
2022/06/22 11:23:47;;;;;;;3.80;2.20;;;;;;;;;;1728967;82;21013;-84
2022/06/22 11:33:48;;;;;;;1.72;1.40;;;;;;;;;;1791339;79;22872;-79
2022/06/22 11:36:18;;;;;;;1.90;1.70;;;;;;;;;;1756767;81;21048;-78
2022/06/22 11:38:46;;;;;;;4.97;1.57;;;;;;;;;;1760295;81;21036;-79
2022/06/22 11:41:26;;;;;;;2.08;1.70;;;;;;;;;;1762181;80;21046;-80
2022/06/22 11:43:57;;;;;;;1.42;1.32;;;;;;;;;;1757769;81;21083;-79
2022/06/22 11:46:28;;;;;;;3.17;1.47;;;;;;;;;;1761064;80;21028;-80
2022/06/22 11:49:05;;;;;;;1.75;1.50;;;;;;;;;;1756207;80;20970;-80
2022/06/22 11:51:33;;;;;;;2.20;1.40;;;;;;;;;;1760306;81;21150;-80
2022/06/22 11:54:13;;;;;;;1.50;1.40;;;;;;;;;;1757495;80;21013;-79
2022/06/22 11:56:47;;;;;;;2.33;1.50;;;;;;;;;;1765928;80;21004;-78
2022/06/22 11:59:33;;;;;;;1.60;1.50;;;;;;;;;;1766757;80;21044;-80
2022/06/22 12:02:01;;;;;;;1.92;1.70;;;;;;;;;;1743043;81;21655;-80
2022/06/22 12:04:29;;;;;;;2.42;1.40;;;;;;;;;;1753540;80;21090;-79
2022/06/22 12:07:00;;;;;;;1.85;1.47;;;;;;;;;;1754958;80;21550;-79
2022/06/22 12:09:31;;;;;;;2.40;1.60;;;;;;;;;;1736354;80;21008;-79
2022/06/22 12:12:05;;;;;;;1.98;1.60;;;;;;;;;;1744517;80;21075;-78
2022/06/22 12:17:39;;;;;;;1.98;1.45;;;;;;;;;;1760366;81;21297;-85
2022/06/22 12:20:16;;;;;;;1.45;1.35;;;;;;;;;;1756896;80;21500;-82
2022/06/22 12:22:56;;;;;;;1.67;1.35;;;;;;;;;;1752202;80;21032;-86
2022/06/22 12:25:27;;;;;;;1.75;1.50;;;;;;;;;;1754301;80;21103;-83
2022/06/22 12:27:58;;;;;;;2.47;1.80;;;;;;;;;;1755252;80;21586;-82
2022/06/22 12:30:29;;;;;;;1.82;1.65;;;;;;;;;;1754797;80;21008;-80
2022/06/22 12:33:03;;;;;;;3.83;2.02;;;;;;;;;;1749240;80;21092;-80
2022/06/22 12:35:47;;;;;;;3.37;1.72;;;;;;;;;;1750925;80;21009;-85
2022/06/22 12:38:34;;;;;;;2.10;1.90;;;;;;;;;;1745878;80;21021;-83
2022/06/22 12:41:21;;;;;;;1.95;1.70;;;;;;;;;;1742241;82;21588;-89
2022/06/22 12:44:04;;;;;;;2.22;1.82;;;;;;;;;;1746408;82;21057;-90
2022/06/22 12:46:48;;;;;;;2.00;1.70;;;;;;;;;;1748430;81;21224;-83
2022/06/22 12:49:19;;;;;;;2.58;1.80;;;;;;;;;;1748736;80;21009;-81
2022/06/22 12:51:47;;;;;;;1.70;1.60;;;;;;;;;;1740597;80;21048;-77
2022/06/22 12:54:15;;;;;;;1.80;1.50;;;;;;;;;;1755021;80;20977;-78
2022/06/22 12:56:42;;;;;;;1.87;1.55;;;;;;;;;;1755353;80;20986;-73
2022/06/22 12:59:19;;;;;;;2.55;1.65;;;;;;;;;;1741682;80;21009;-73
2022/06/22 13:01:45;;;;;;;2.67;1.90;;;;;;;;;;1745796;80;21556;-78
2022/06/22 13:04:22;;;;;;;3.72;2.00;;;;;;;;;;1749006;80;20977;-78
2022/06/22 13:06:49;;;;;;;3.33;1.80;;;;;;;;;;1746780;80;21525;-79
2022/06/22 13:09:15;;;;;;;2.65;2.10;;;;;;;;;;1743724;81;21052;-79
2022/06/22 13:11:44;;;;;;;2.27;1.70;;;;;;;;;;1757192;80;21086;-81
2022/06/22 13:14:15;;;;;;;2.58;1.77;;;;;;;;;;1741067;80;21139;-81
2022/06/22 13:16:57;;;;;;;2.45;1.85;;;;;;;;;;1745786;80;21003;-76
2022/06/22 13:19:27;;;;;;;4.05;1.90;;;;;;;;;;1717853;80;22410;-84
2022/06/22 13:22:11;;;;;;;2.65;1.90;;;;;;;;;;1776059;80;21094;-80
2022/06/22 13:24:42;;;;;;;6.05;2.02;;;;;;;;;;1757048;80;21509;-76
2022/06/22 13:27:17;;;;;;;2.02;1.80;;;;;;;;;;1735250;82;21041;-79
2022/06/22 13:29:45;;;;;;;2.12;1.75;;;;;;;;;;1750244;80;21049;-80
2022/06/22 13:32:12;;;;;;;2.27;1.80;;;;;;;;;;1748835;80;21136;-84
2022/06/22 13:34:48;;;;;;;2.25;1.92;;;;;;;;;;1762944;80;21596;-82
2022/06/22 13:37:33;;;;;;;3.62;1.80;;;;;;;;;;1739671;80;21069;-83
2022/06/22 13:40:01;;;;;;;1.65;1.55;;;;;;;;;;1762915;80;21004;-84
2022/06/22 13:42:48;;;;;;;2.37;1.87;;;;;;;;;;1791150;80;21040;-82
2022/06/22 13:45:15;;;;;;;3.52;1.75;;;;;;;;;;1768720;80;21016;-80
2022/06/22 13:47:44;;;;;;;2.00;1.65;;;;;;;;;;1763043;81;21051;-79
2022/06/22 13:50:20;;;;;;;3.42;2.00;;;;;;;;;;1755360;81;21321;-83
2022/06/22 13:52:56;;;;;;;4.28;2.10;;;;;;;;;;1760497;80;21505;-81
2022/06/22 13:55:24;;;;;;;2.90;1.80;;;;;;;;;;1762764;80;21013;-80
2022/06/22 13:57:52;;;;;;;1.87;1.67;;;;;;;;;;1760981;80;21032;-79
2022/06/22 14:00:19;;;;;;;2.30;2.00;;;;;;;;;;1765454;80;21328;-79
2022/06/22 14:02:53;;;;;;;1.95;1.75;;;;;;;;;;1757943;80;21152;-77
2022/06/22 14:05:26;;;;;;;2.35;2.00;;;;;;;;;;1760693;81;22283;-81
2022/06/22 14:07:54;;;;;;;3.10;2.07;;;;;;;;;;1762028;80;21028;-80
2022/06/22 14:10:25;;;;;;;3.80;1.80;;;;;;;;;;1761809;80;21067;-78
2022/06/22 14:12:51;;;;;;;2.55;1.80;;;;;;;;;;1757224;80;21559;-77
2022/06/22 14:15:26;;;;;;;2.42;1.87;;;;;;;;;;1762033;80;20981;-83
2022/06/22 14:18:04;;;;;;;2.92;1.87;;;;;;;;;;1753764;80;21158;-77
2022/06/22 14:20:32;;;;;;;1.72;1.62;;;;;;;;;;1753973;81;21520;-78
2022/06/22 14:23:02;;;;;;;2.60;2.08;;;;;;;;;;1764797;80;21048;-75
2022/06/22 14:25:33;;;;;;;4.60;2.60;;;;;;;;;;1760462;81;20998;-77
2022/06/22 14:28:13;;;;;;;2.92;1.98;;;;;;;;;;1755766;80;21037;-76
2022/06/22 14:30:47;;;;;;;9.98;7.10;;;;;;;;;;1768206;80;21004;-76
2022/06/22 14:33:16;;;;;;;62.00;55.50;;;;;;;;;;1745023;81;21045;-77
2022/06/22 14:35:50;;;;;;;24.98;17.95;;;;;;;;;;1746051;81;21056;-78
2022/06/22 14:38:18;;;;;;;7.72;5.28;;;;;;;;;;1746777;82;21631;-75
2022/06/22 14:41:04;;;;;;;9.05;6.08;;;;;;;;;;1748385;81;20966;-75
2022/06/22 14:43:32;;;;;;;3.87;2.58;;;;;;;;;;1745874;82;21011;-75
2022/06/22 14:45:59;;;;;;;2.47;2.00;;;;;;;;;;1745608;82;20961;-76
2022/06/22 14:48:28;;;;;;;1.87;1.70;;;;;;;;;;1744821;81;21019;-76
2022/06/22 14:50:59;;;;;;;2.70;1.60;;;;;;;;;;1750568;80;20954;-76
2022/06/22 14:53:27;;;;;;;1.90;1.62;;;;;;;;;;1743951;80;21053;-75
2022/06/22 14:55:59;;;;;;;1.70;1.60;;;;;;;;;;1739314;80;21532;-75
2022/06/22 14:58:30;;;;;;;1.65;1.55;;;;;;;;;;1746987;80;21543;-76
2022/06/22 15:00:59;;;;;;;1.98;1.80;;;;;;;;;;1743915;80;21069;-76
2022/06/22 15:03:43;;;;;;;2.00;1.60;;;;;;;;;;1742721;81;21008;-76
2022/06/22 15:06:23;;;;;;;4.33;2.00;;;;;;;;;;1742616;80;21553;-77
2022/06/22 15:09:07;;;;;;;1.80;1.70;;;;;;;;;;1741844;80;21036;-76
2022/06/22 15:14:46;;;;;;;2.15;1.60;;;;;;;;;;1745223;80;21533;-76
2022/06/22 15:17:14;;;;;;;2.87;1.98;;;;;;;;;;1744895;80;21035;-77
2022/06/22 15:19:58;;;;;;;2.33;2.02;;;;;;;;;;1744673;81;21130;-76
2022/06/22 15:22:33;;;;;;;4.12;1.98;;;;;;;;;;1746483;82;21038;-75
2022/06/22 15:25:19;;;;;;;2.45;1.62;;;;;;;;;;1748761;80;21015;-76
2022/06/22 15:27:48;;;;;;;2.27;1.95;;;;;;;;;;1746783;81;21054;-76
2022/06/22 15:30:17;;;;;;;2.55;1.80;;;;;;;;;;1742770;80;21003;-76
2022/06/22 15:32:49;;;;;;;2.50;1.90;;;;;;;;;;1745496;81;21015;-76
2022/06/22 15:35:22;;;;;;;2.40;2.00;;;;;;;;;;1746102;81;21048;-76
2022/06/22 15:37:59;;;;;;;3.20;1.80;;;;;;;;;;1723744;81;21033;-76
2022/06/22 15:40:43;;;;;;;2.65;1.77;;;;;;;;;;1744389;81;21185;-76